sensor_id;sensor_type;location;lat;lon;timestamp;P1;durP1;ratioP1;P2;durP2;ratioP2
27145;SDS011;17980;51.744;7.190;2022-09-09T00:00:33;2.13;;;0.50;;
27145;SDS011;17980;51.744;7.190;2022-09-09T00:03:03;2.07;;;0.50;;
27145;SDS011;17980;51.744;7.190;2022-09-09T00:05:34;1.63;;;0.37;;
27145;SDS011;17980;51.744;7.190;2022-09-09T00:08:15;2.97;;;0.40;;
27145;SDS011;17980;51.744;7.190;2022-09-09T00:10:44;1.90;;;0.50;;
27145;SDS011;17980;51.744;7.190;2022-09-09T00:13:16;0.87;;;0.40;;
27145;SDS011;17980;51.744;7.190;2022-09-09T00:15:48;1.37;;;0.40;;
27145;SDS011;17980;51.744;7.190;2022-09-09T00:18:28;1.47;;;0.40;;
27145;SDS011;17980;51.744;7.190;2022-09-09T00:21:01;2.73;;;0.40;;
27145;SDS011;17980;51.744;7.190;2022-09-09T00:23:33;1.93;;;0.60;;
27145;SDS011;17980;51.744;7.190;2022-09-09T00:26:04;3.33;;;0.77;;
27145;SDS011;17980;51.744;7.190;2022-09-09T00:28:39;1.90;;;0.40;;
27145;SDS011;17980;51.744;7.190;2022-09-09T00:31:12;1.20;;;0.50;;
27145;SDS011;17980;51.744;7.190;2022-09-09T00:33:41;1.33;;;0.50;;
27145;SDS011;17980;51.744;7.190;2022-09-09T00:36:11;1.33;;;0.70;;
27145;SDS011;17980;51.744;7.190;2022-09-09T00:38:43;2.20;;;0.60;;
27145;SDS011;17980;51.744;7.190;2022-09-09T00:41:15;1.77;;;0.60;;
27145;SDS011;17980;51.744;7.190;2022-09-09T00:43:49;1.43;;;0.53;;
27145;SDS011;17980;51.744;7.190;2022-09-09T00:46:29;3.37;;;0.90;;
27145;SDS011;17980;51.744;7.190;2022-09-09T00:49:18;2.77;;;1.10;;
27145;SDS011;17980;51.744;7.190;2022-09-09T00:51:54;1.33;;;0.60;;
27145;SDS011;17980;51.744;7.190;2022-09-09T00:54:38;4.63;;;0.70;;
27145;SDS011;17980;51.744;7.190;2022-09-09T00:57:13;2.43;;;0.70;;
27145;SDS011;17980;51.744;7.190;2022-09-09T00:59:45;2.17;;;0.70;;
27145;SDS011;17980;51.744;7.190;2022-09-09T01:02:26;1.43;;;0.60;;
27145;SDS011;17980;51.744;7.190;2022-09-09T01:04:57;1.80;;;0.60;;
27145;SDS011;17980;51.744;7.190;2022-09-09T01:07:35;1.63;;;0.60;;
27145;SDS011;17980;51.744;7.190;2022-09-09T01:10:05;0.43;;;0.40;;
27145;SDS011;17980;51.744;7.190;2022-09-09T01:12:38;2.83;;;0.60;;
27145;SDS011;17980;51.744;7.190;2022-09-09T01:15:15;1.10;;;0.50;;
27145;SDS011;17980;51.744;7.190;2022-09-09T01:17:55;0.97;;;0.50;;
27145;SDS011;17980;51.744;7.190;2022-09-09T01:20:37;1.93;;;0.80;;
27145;SDS011;17980;51.744;7.190;2022-09-09T01:23:12;1.53;;;0.50;;
27145;SDS011;17980;51.744;7.190;2022-09-09T01:26:02;3.07;;;0.60;;
27145;SDS011;17980;51.744;7.190;2022-09-09T01:28:40;1.07;;;0.57;;
27145;SDS011;17980;51.744;7.190;2022-09-09T01:31:12;2.03;;;0.57;;
27145;SDS011;17980;51.744;7.190;2022-09-09T01:33:42;2.30;;;0.60;;
27145;SDS011;17980;51.744;7.190;2022-09-09T01:36:10;1.13;;;0.47;;
27145;SDS011;17980;51.744;7.190;2022-09-09T01:38:41;1.13;;;0.40;;
27145;SDS011;17980;51.744;7.190;2022-09-09T01:41:10;1.03;;;0.40;;
27145;SDS011;17980;51.744;7.190;2022-09-09T01:43:37;1.50;;;0.50;;
27145;SDS011;17980;51.744;7.190;2022-09-09T01:46:04;1.77;;;0.50;;
27145;SDS011;17980;51.744;7.190;2022-09-09T01:48:32;1.63;;;0.50;;
27145;SDS011;17980;51.744;7.190;2022-09-09T01:50:59;2.40;;;0.67;;
27145;SDS011;17980;51.744;7.190;2022-09-09T01:53:27;2.70;;;0.73;;
27145;SDS011;17980;51.744;7.190;2022-09-09T01:56:00;1.13;;;0.63;;
27145;SDS011;17980;51.744;7.190;2022-09-09T01:58:36;2.20;;;0.70;;
27145;SDS011;17980;51.744;7.190;2022-09-09T02:01:08;1.50;;;0.70;;
27145;SDS011;17980;51.744;7.190;2022-09-09T02:03:37;1.40;;;0.50;;
27145;SDS011;17980;51.744;7.190;2022-09-09T02:06:08;1.77;;;0.53;;
27145;SDS011;17980;51.744;7.190;2022-09-09T02:08:47;5.13;;;0.50;;
27145;SDS011;17980;51.744;7.190;2022-09-09T02:11:17;2.87;;;0.60;;
27145;SDS011;17980;51.744;7.190;2022-09-09T02:13:46;3.00;;;0.40;;
27145;SDS011;17980;51.744;7.190;2022-09-09T02:16:16;1.83;;;0.40;;
27145;SDS011;17980;51.744;7.190;2022-09-09T02:18:47;3.10;;;0.80;;
27145;SDS011;17980;51.744;7.190;2022-09-09T02:21:16;2.83;;;0.40;;
27145;SDS011;17980;51.744;7.190;2022-09-09T02:23:44;1.07;;;0.60;;
27145;SDS011;17980;51.744;7.190;2022-09-09T02:26:17;0.87;;;0.63;;
27145;SDS011;17980;51.744;7.190;2022-09-09T02:28:49;2.43;;;0.67;;
27145;SDS011;17980;51.744;7.190;2022-09-09T02:31:20;1.80;;;0.60;;
27145;SDS011;17980;51.744;7.190;2022-09-09T02:33:58;1.33;;;0.63;;
27145;SDS011;17980;51.744;7.190;2022-09-09T02:39:26;1.80;;;0.80;;
27145;SDS011;17980;51.744;7.190;2022-09-09T02:41:53;3.27;;;0.80;;
27145;SDS011;17980;51.744;7.190;2022-09-09T02:44:20;1.70;;;0.70;;
27145;SDS011;17980;51.744;7.190;2022-09-09T02:46:53;1.70;;;0.93;;
27145;SDS011;17980;51.744;7.190;2022-09-09T02:49:36;1.43;;;0.73;;
27145;SDS011;17980;51.744;7.190;2022-09-09T02:52:07;1.67;;;0.80;;
27145;SDS011;17980;51.744;7.190;2022-09-09T02:54:38;4.67;;;0.87;;
27145;SDS011;17980;51.744;7.190;2022-09-09T02:57:16;4.67;;;0.70;;
27145;SDS011;17980;51.744;7.190;2022-09-09T02:59:45;2.10;;;0.70;;
27145;SDS011;17980;51.744;7.190;2022-09-09T03:02:13;4.97;;;0.70;;
27145;SDS011;17980;51.744;7.190;2022-09-09T03:04:41;2.80;;;0.70;;
27145;SDS011;17980;51.744;7.190;2022-09-09T03:07:18;2.30;;;0.70;;
27145;SDS011;17980;51.744;7.190;2022-09-09T03:09:46;4.60;;;0.70;;
27145;SDS011;17980;51.744;7.190;2022-09-09T03:12:13;0.70;;;0.50;;
27145;SDS011;17980;51.744;7.190;2022-09-09T03:14:40;2.73;;;0.90;;
27145;SDS011;17980;51.744;7.190;2022-09-09T03:17:08;2.67;;;0.70;;
27145;SDS011;17980;51.744;7.190;2022-09-09T03:19:36;1.47;;;0.70;;
27145;SDS011;17980;51.744;7.190;2022-09-09T03:22:04;1.00;;;0.60;;
27145;SDS011;17980;51.744;7.190;2022-09-09T03:24:31;2.07;;;0.60;;
27145;SDS011;17980;51.744;7.190;2022-09-09T03:26:58;2.33;;;0.60;;
27145;SDS011;17980;51.744;7.190;2022-09-09T03:29:25;3.20;;;0.80;;
27145;SDS011;17980;51.744;7.190;2022-09-09T03:31:55;1.87;;;0.60;;
27145;SDS011;17980;51.744;7.190;2022-09-09T03:34:46;2.87;;;0.80;;
27145;SDS011;17980;51.744;7.190;2022-09-09T03:37:17;2.37;;;0.70;;
27145;SDS011;17980;51.744;7.190;2022-09-09T03:39:46;2.40;;;1.33;;
27145;SDS011;17980;51.744;7.190;2022-09-09T03:42:23;4.60;;;0.83;;
27145;SDS011;17980;51.744;7.190;2022-09-09T03:44:50;3.10;;;0.80;;
27145;SDS011;17980;51.744;7.190;2022-09-09T03:47:18;2.10;;;0.90;;
27145;SDS011;17980;51.744;7.190;2022-09-09T03:49:47;4.23;;;0.90;;
27145;SDS011;17980;51.744;7.190;2022-09-09T03:52:14;2.40;;;1.00;;
27145;SDS011;17980;51.744;7.190;2022-09-09T03:54:42;1.23;;;0.80;;
27145;SDS011;17980;51.744;7.190;2022-09-09T03:57:09;2.13;;;0.90;;
27145;SDS011;17980;51.744;7.190;2022-09-09T03:59:36;2.20;;;0.90;;
27145;SDS011;17980;51.744;7.190;2022-09-09T04:02:04;1.53;;;0.87;;
27145;SDS011;17980;51.744;7.190;2022-09-09T04:04:31;2.17;;;0.80;;
27145;SDS011;17980;51.744;7.190;2022-09-09T04:06:58;2.77;;;1.03;;
27145;SDS011;17980;51.744;7.190;2022-09-09T04:09:25;1.57;;;0.80;;
27145;SDS011;17980;51.744;7.190;2022-09-09T04:11:52;4.13;;;0.90;;
27145;SDS011;17980;51.744;7.190;2022-09-09T04:14:20;2.13;;;0.90;;
27145;SDS011;17980;51.744;7.190;2022-09-09T04:16:48;4.07;;;1.20;;
27145;SDS011;17980;51.744;7.190;2022-09-09T04:19:15;2.10;;;0.90;;
27145;SDS011;17980;51.744;7.190;2022-09-09T04:21:42;3.73;;;1.20;;
27145;SDS011;17980;51.744;7.190;2022-09-09T04:24:10;3.83;;;1.30;;
27145;SDS011;17980;51.744;7.190;2022-09-09T04:26:37;3.00;;;1.10;;
27145;SDS011;17980;51.744;7.190;2022-09-09T04:29:05;1.40;;;1.20;;
27145;SDS011;17980;51.744;7.190;2022-09-09T04:31:33;5.33;;;1.40;;
27145;SDS011;17980;51.744;7.190;2022-09-09T04:34:10;1.17;;;1.00;;
27145;SDS011;17980;51.744;7.190;2022-09-09T04:36:37;2.97;;;1.80;;
27145;SDS011;17980;51.744;7.190;2022-09-09T04:39:06;3.80;;;1.17;;
27145;SDS011;17980;51.744;7.190;2022-09-09T04:41:33;4.10;;;1.47;;
27145;SDS011;17980;51.744;7.190;2022-09-09T04:44:01;5.40;;;1.63;;
27145;SDS011;17980;51.744;7.190;2022-09-09T04:46:28;2.10;;;1.17;;
27145;SDS011;17980;51.744;7.190;2022-09-09T04:49:05;4.20;;;0.90;;
27145;SDS011;17980;51.744;7.190;2022-09-09T04:51:35;1.63;;;1.10;;
27145;SDS011;17980;51.744;7.190;2022-09-09T04:54:03;2.93;;;1.30;;
27145;SDS011;17980;51.744;7.190;2022-09-09T04:56:31;8.27;;;1.50;;
27145;SDS011;17980;51.744;7.190;2022-09-09T04:58:58;4.30;;;1.30;;
27145;SDS011;17980;51.744;7.190;2022-09-09T05:01:25;3.60;;;1.20;;
27145;SDS011;17980;51.744;7.190;2022-09-09T05:03:54;3.57;;;1.00;;
27145;SDS011;17980;51.744;7.190;2022-09-09T05:06:22;2.47;;;1.40;;
27145;SDS011;17980;51.744;7.190;2022-09-09T05:08:50;1.50;;;0.90;;
27145;SDS011;17980;51.744;7.190;2022-09-09T05:11:19;5.20;;;1.33;;
27145;SDS011;17980;51.744;7.190;2022-09-09T05:13:49;5.33;;;1.37;;
27145;SDS011;17980;51.744;7.190;2022-09-09T05:16:16;3.37;;;1.60;;
27145;SDS011;17980;51.744;7.190;2022-09-09T05:18:53;3.10;;;1.10;;
27145;SDS011;17980;51.744;7.190;2022-09-09T05:21:21;4.10;;;1.07;;
27145;SDS011;17980;51.744;7.190;2022-09-09T05:23:50;2.83;;;1.40;;
27145;SDS011;17980;51.744;7.190;2022-09-09T05:26:18;2.53;;;1.27;;
27145;SDS011;17980;51.744;7.190;2022-09-09T05:28:47;2.93;;;1.30;;
27145;SDS011;17980;51.744;7.190;2022-09-09T05:31:15;3.07;;;1.17;;
27145;SDS011;17980;51.744;7.190;2022-09-09T05:33:44;2.70;;;1.10;;
27145;SDS011;17980;51.744;7.190;2022-09-09T05:36:13;2.53;;;1.10;;
27145;SDS011;17980;51.744;7.190;2022-09-09T05:38:42;5.23;;;1.50;;
27145;SDS011;17980;51.744;7.190;2022-09-09T05:41:11;5.60;;;1.60;;
27145;SDS011;17980;51.744;7.190;2022-09-09T05:43:41;4.73;;;1.50;;
27145;SDS011;17980;51.744;7.190;2022-09-09T05:46:10;6.53;;;1.83;;
27145;SDS011;17980;51.744;7.190;2022-09-09T05:48:48;5.10;;;1.33;;
27145;SDS011;17980;51.744;7.190;2022-09-09T05:51:17;3.73;;;1.07;;
27145;SDS011;17980;51.744;7.190;2022-09-09T05:53:47;3.83;;;1.17;;
27145;SDS011;17980;51.744;7.190;2022-09-09T05:56:16;2.20;;;0.80;;
27145;SDS011;17980;51.744;7.190;2022-09-09T05:58:44;3.63;;;1.33;;
27145;SDS011;17980;51.744;7.190;2022-09-09T06:01:13;7.43;;;1.20;;
27145;SDS011;17980;51.744;7.190;2022-09-09T06:03:43;3.37;;;1.10;;
27145;SDS011;17980;51.744;7.190;2022-09-09T06:06:12;4.03;;;1.30;;
27145;SDS011;17980;51.744;7.190;2022-09-09T06:08:41;6.77;;;1.00;;
27145;SDS011;17980;51.744;7.190;2022-09-09T06:11:11;10.77;;;1.40;;
27145;SDS011;17980;51.744;7.190;2022-09-09T06:13:48;5.23;;;1.00;;
27145;SDS011;17980;51.744;7.190;2022-09-09T06:16:18;4.97;;;1.10;;
27145;SDS011;17980;51.744;7.190;2022-09-09T06:18:48;5.10;;;1.10;;
27145;SDS011;17980;51.744;7.190;2022-09-09T06:21:17;3.40;;;1.07;;
27145;SDS011;17980;51.744;7.190;2022-09-09T06:23:45;3.47;;;0.80;;
27145;SDS011;17980;51.744;7.190;2022-09-09T06:26:14;6.73;;;1.10;;
27145;SDS011;17980;51.744;7.190;2022-09-09T06:28:43;6.67;;;1.20;;
27145;SDS011;17980;51.744;7.190;2022-09-09T06:31:12;5.53;;;1.20;;
27145;SDS011;17980;51.744;7.190;2022-09-09T06:33:40;4.27;;;1.23;;
27145;SDS011;17980;51.744;7.190;2022-09-09T06:36:11;2.27;;;0.80;;
27145;SDS011;17980;51.744;7.190;2022-09-09T06:38:40;4.53;;;1.00;;
27145;SDS011;17980;51.744;7.190;2022-09-09T06:41:08;5.73;;;1.10;;
27145;SDS011;17980;51.744;7.190;2022-09-09T06:43:36;4.77;;;0.87;;
27145;SDS011;17980;51.744;7.190;2022-09-09T06:46:19;3.57;;;0.80;;
27145;SDS011;17980;51.744;7.190;2022-09-09T06:48:48;4.27;;;0.90;;
27145;SDS011;17980;51.744;7.190;2022-09-09T06:51:16;12.83;;;1.30;;
27145;SDS011;17980;51.744;7.190;2022-09-09T06:53:54;3.87;;;1.00;;
27145;SDS011;17980;51.744;7.190;2022-09-09T06:56:23;5.03;;;1.10;;
27145;SDS011;17980;51.744;7.190;2022-09-09T06:58:53;4.77;;;0.90;;
27145;SDS011;17980;51.744;7.190;2022-09-09T07:01:22;3.33;;;0.97;;
27145;SDS011;17980;51.744;7.190;2022-09-09T07:03:51;3.90;;;1.17;;
27145;SDS011;17980;51.744;7.190;2022-09-09T07:06:21;2.43;;;1.00;;
27145;SDS011;17980;51.744;7.190;2022-09-09T07:08:59;4.20;;;0.90;;
27145;SDS011;17980;51.744;7.190;2022-09-09T07:11:28;4.47;;;1.00;;
27145;SDS011;17980;51.744;7.190;2022-09-09T07:13:57;4.97;;;0.90;;
27145;SDS011;17980;51.744;7.190;2022-09-09T07:16:25;5.47;;;1.00;;
27145;SDS011;17980;51.744;7.190;2022-09-09T07:19:02;5.93;;;1.17;;
27145;SDS011;17980;51.744;7.190;2022-09-09T07:21:31;9.03;;;0.90;;
27145;SDS011;17980;51.744;7.190;2022-09-09T07:24:01;6.63;;;1.20;;
27145;SDS011;17980;51.744;7.190;2022-09-09T07:26:29;2.67;;;0.90;;
27145;SDS011;17980;51.744;7.190;2022-09-09T07:28:56;7.77;;;1.20;;
27145;SDS011;17980;51.744;7.190;2022-09-09T07:31:24;6.40;;;1.20;;
27145;SDS011;17980;51.744;7.190;2022-09-09T07:33:53;7.77;;;1.00;;
27145;SDS011;17980;51.744;7.190;2022-09-09T07:39:10;10.37;;;1.27;;
27145;SDS011;17980;51.744;7.190;2022-09-09T07:41:39;4.03;;;0.80;;
27145;SDS011;17980;51.744;7.190;2022-09-09T07:44:09;4.03;;;0.90;;
27145;SDS011;17980;51.744;7.190;2022-09-09T07:46:38;7.33;;;1.00;;
27145;SDS011;17980;51.744;7.190;2022-09-09T07:49:15;4.97;;;0.70;;
27145;SDS011;17980;51.744;7.190;2022-09-09T07:51:44;4.13;;;0.93;;
27145;SDS011;17980;51.744;7.190;2022-09-09T07:54:14;2.93;;;0.80;;
27145;SDS011;17980;51.744;7.190;2022-09-09T07:56:44;2.73;;;0.70;;
27145;SDS011;17980;51.744;7.190;2022-09-09T07:59:12;2.97;;;0.83;;
27145;SDS011;17980;51.744;7.190;2022-09-09T08:01:40;6.70;;;1.17;;
27145;SDS011;17980;51.744;7.190;2022-09-09T08:04:18;2.43;;;0.90;;
27145;SDS011;17980;51.744;7.190;2022-09-09T08:06:47;3.20;;;1.10;;
27145;SDS011;17980;51.744;7.190;2022-09-09T08:09:15;10.23;;;0.73;;
27145;SDS011;17980;51.744;7.190;2022-09-09T08:11:44;4.83;;;0.90;;
27145;SDS011;17980;51.744;7.190;2022-09-09T08:14:12;3.67;;;0.90;;
27145;SDS011;17980;51.744;7.190;2022-09-09T08:16:41;5.87;;;1.33;;
27145;SDS011;17980;51.744;7.190;2022-09-09T08:19:09;5.70;;;0.93;;
27145;SDS011;17980;51.744;7.190;2022-09-09T08:21:37;5.93;;;0.90;;
27145;SDS011;17980;51.744;7.190;2022-09-09T08:24:06;4.93;;;0.70;;
27145;SDS011;17980;51.744;7.190;2022-09-09T08:26:34;2.53;;;0.63;;
27145;SDS011;17980;51.744;7.190;2022-09-09T08:29:03;4.63;;;0.80;;
27145;SDS011;17980;51.744;7.190;2022-09-09T08:31:32;5.50;;;0.90;;
27145;SDS011;17980;51.744;7.190;2022-09-09T08:34:01;12.73;;;1.17;;
27145;SDS011;17980;51.744;7.190;2022-09-09T08:36:31;4.80;;;1.20;;
27145;SDS011;17980;51.744;7.190;2022-09-09T08:39:09;4.53;;;0.97;;
27145;SDS011;17980;51.744;7.190;2022-09-09T08:41:41;3.33;;;0.67;;
27145;SDS011;17980;51.744;7.190;2022-09-09T08:44:26;4.53;;;0.70;;
27145;SDS011;17980;51.744;7.190;2022-09-09T08:46:59;5.07;;;0.73;;
27145;SDS011;17980;51.744;7.190;2022-09-09T08:52:49;5.67;;;0.73;;
27145;SDS011;17980;51.744;7.190;2022-09-09T08:55:25;2.83;;;0.67;;
27145;SDS011;17980;51.744;7.190;2022-09-09T08:57:57;3.43;;;0.60;;
27145;SDS011;17980;51.744;7.190;2022-09-09T09:00:28;7.20;;;1.13;;
27145;SDS011;17980;51.744;7.190;2022-09-09T09:03:09;6.13;;;1.00;;
27145;SDS011;17980;51.744;7.190;2022-09-09T09:05:42;3.33;;;0.70;;
27145;SDS011;17980;51.744;7.190;2022-09-09T09:08:15;3.30;;;0.80;;
27145;SDS011;17980;51.744;7.190;2022-09-09T09:10:46;3.90;;;0.70;;
27145;SDS011;17980;51.744;7.190;2022-09-09T09:13:15;4.90;;;0.77;;
27145;SDS011;17980;51.744;7.190;2022-09-09T09:15:55;5.70;;;0.90;;
27145;SDS011;17980;51.744;7.190;2022-09-09T09:18:24;1.53;;;0.53;;
27145;SDS011;17980;51.744;7.190;2022-09-09T09:21:03;3.47;;;0.87;;
27145;SDS011;17980;51.744;7.190;2022-09-09T09:23:36;3.53;;;0.60;;
27145;SDS011;17980;51.744;7.190;2022-09-09T09:26:06;3.23;;;0.80;;
27145;SDS011;17980;51.744;7.190;2022-09-09T09:28:54;6.13;;;1.13;;
27145;SDS011;17980;51.744;7.190;2022-09-09T09:31:24;4.53;;;0.63;;
27145;SDS011;17980;51.744;7.190;2022-09-09T09:33:53;5.77;;;0.70;;
27145;SDS011;17980;51.744;7.190;2022-09-09T09:36:23;2.17;;;0.60;;
27145;SDS011;17980;51.744;7.190;2022-09-09T09:38:53;8.80;;;0.83;;
27145;SDS011;17980;51.744;7.190;2022-09-09T09:41:29;3.40;;;0.60;;
27145;SDS011;17980;51.744;7.190;2022-09-09T09:44:02;5.17;;;0.63;;
27145;SDS011;17980;51.744;7.190;2022-09-09T09:46:39;3.80;;;0.70;;
27145;SDS011;17980;51.744;7.190;2022-09-09T09:49:09;7.40;;;0.93;;
27145;SDS011;17980;51.744;7.190;2022-09-09T09:51:37;3.00;;;0.53;;
27145;SDS011;17980;51.744;7.190;2022-09-09T09:54:09;2.17;;;0.47;;
27145;SDS011;17980;51.744;7.190;2022-09-09T09:56:44;1.93;;;0.57;;
27145;SDS011;17980;51.744;7.190;2022-09-09T09:59:20;2.87;;;0.40;;
27145;SDS011;17980;51.744;7.190;2022-09-09T10:01:52;4.23;;;0.43;;
27145;SDS011;17980;51.744;7.190;2022-09-09T10:04:20;1.27;;;0.50;;
27145;SDS011;17980;51.744;7.190;2022-09-09T10:06:49;2.77;;;0.60;;
27145;SDS011;17980;51.744;7.190;2022-09-09T10:09:21;4.77;;;0.77;;
27145;SDS011;17980;51.744;7.190;2022-09-09T10:11:52;2.70;;;0.40;;
27145;SDS011;17980;51.744;7.190;2022-09-09T10:14:24;3.93;;;0.60;;
27145;SDS011;17980;51.744;7.190;2022-09-09T10:16:58;5.30;;;0.77;;
27145;SDS011;17980;51.744;7.190;2022-09-09T10:19:38;5.53;;;0.60;;
27145;SDS011;17980;51.744;7.190;2022-09-09T10:22:13;4.17;;;0.50;;
27145;SDS011;17980;51.744;7.190;2022-09-09T10:25:00;3.07;;;0.67;;
27145;SDS011;17980;51.744;7.190;2022-09-09T10:27:36;2.13;;;0.60;;
27145;SDS011;17980;51.744;7.190;2022-09-09T10:30:10;3.23;;;0.60;;
27145;SDS011;17980;51.744;7.190;2022-09-09T10:32:41;2.93;;;0.77;;
27145;SDS011;17980;51.744;7.190;2022-09-09T10:35:14;3.33;;;0.60;;
27145;SDS011;17980;51.744;7.190;2022-09-09T10:41:16;2.70;;;0.60;;
27145;SDS011;17980;51.744;7.190;2022-09-09T10:43:59;5.20;;;0.70;;
27145;SDS011;17980;51.744;7.190;2022-09-09T10:46:33;3.23;;;0.60;;
27145;SDS011;17980;51.744;7.190;2022-09-09T10:49:15;4.97;;;0.90;;
27145;SDS011;17980;51.744;7.190;2022-09-09T10:51:48;3.87;;;0.60;;
27145;SDS011;17980;51.744;7.190;2022-09-09T10:54:22;3.30;;;0.60;;
27145;SDS011;17980;51.744;7.190;2022-09-09T10:56:58;2.20;;;0.73;;
27145;SDS011;17980;51.744;7.190;2022-09-09T10:59:28;4.43;;;0.50;;
27145;SDS011;17980;51.744;7.190;2022-09-09T11:01:58;6.27;;;0.63;;
27145;SDS011;17980;51.744;7.190;2022-09-09T11:04:38;2.90;;;0.60;;
27145;SDS011;17980;51.744;7.190;2022-09-09T11:07:07;5.10;;;0.83;;
27145;SDS011;17980;51.744;7.190;2022-09-09T11:09:46;2.13;;;0.57;;
27145;SDS011;17980;51.744;7.190;2022-09-09T11:12:17;1.70;;;0.53;;
27145;SDS011;17980;51.744;7.190;2022-09-09T11:14:47;3.33;;;0.60;;
27145;SDS011;17980;51.744;7.190;2022-09-09T11:17:18;1.57;;;0.60;;
27145;SDS011;17980;51.744;7.190;2022-09-09T11:19:48;5.70;;;0.70;;
27145;SDS011;17980;51.744;7.190;2022-09-09T11:22:18;3.33;;;0.93;;
27145;SDS011;17980;51.744;7.190;2022-09-09T11:24:49;1.73;;;0.50;;
27145;SDS011;17980;51.744;7.190;2022-09-09T11:27:23;4.63;;;0.73;;
27145;SDS011;17980;51.744;7.190;2022-09-09T11:32:51;5.43;;;0.40;;
27145;SDS011;17980;51.744;7.190;2022-09-09T11:35:42;3.77;;;0.50;;
27145;SDS011;17980;51.744;7.190;2022-09-09T11:38:18;1.17;;;0.47;;
27145;SDS011;17980;51.744;7.190;2022-09-09T11:40:47;2.87;;;0.30;;
27145;SDS011;17980;51.744;7.190;2022-09-09T11:43:31;1.37;;;0.53;;
27145;SDS011;17980;51.744;7.190;2022-09-09T11:46:01;2.27;;;0.60;;
27145;SDS011;17980;51.744;7.190;2022-09-09T11:48:31;3.27;;;0.47;;
27145;SDS011;17980;51.744;7.190;2022-09-09T11:51:01;2.70;;;0.30;;
27145;SDS011;17980;51.744;7.190;2022-09-09T11:53:31;1.00;;;0.30;;
27145;SDS011;17980;51.744;7.190;2022-09-09T11:56:00;3.13;;;0.60;;
27145;SDS011;17980;51.744;7.190;2022-09-09T11:58:32;1.53;;;0.43;;
27145;SDS011;17980;51.744;7.190;2022-09-09T12:01:13;2.97;;;0.50;;
27145;SDS011;17980;51.744;7.190;2022-09-09T12:03:42;1.47;;;0.50;;
27145;SDS011;17980;51.744;7.190;2022-09-09T12:06:28;4.03;;;0.53;;
27145;SDS011;17980;51.744;7.190;2022-09-09T12:08:53;2.93;;;0.30;;
27145;SDS011;17980;51.744;7.190;2022-09-09T12:11:25;1.27;;;0.40;;
27145;SDS011;17980;51.744;7.190;2022-09-09T12:14:02;4.13;;;0.50;;
27145;SDS011;17980;51.744;7.190;2022-09-09T12:16:31;5.10;;;0.50;;
27145;SDS011;17980;51.744;7.190;2022-09-09T12:19:04;1.50;;;0.30;;
27145;SDS011;17980;51.744;7.190;2022-09-09T12:21:35;4.17;;;0.50;;
27145;SDS011;17980;51.744;7.190;2022-09-09T12:24:07;1.47;;;0.47;;
27145;SDS011;17980;51.744;7.190;2022-09-09T12:26:47;4.50;;;0.50;;
27145;SDS011;17980;51.744;7.190;2022-09-09T12:29:21;1.80;;;0.47;;
27145;SDS011;17980;51.744;7.190;2022-09-09T12:31:53;4.60;;;0.57;;
27145;SDS011;17980;51.744;7.190;2022-09-09T12:34:33;0.87;;;0.40;;
27145;SDS011;17980;51.744;7.190;2022-09-09T12:37:05;1.77;;;0.40;;
27145;SDS011;17980;51.744;7.190;2022-09-09T12:39:37;3.43;;;0.50;;
27145;SDS011;17980;51.744;7.190;2022-09-09T12:42:14;3.10;;;0.50;;
27145;SDS011;17980;51.744;7.190;2022-09-09T12:44:50;3.60;;;0.63;;
27145;SDS011;17980;51.744;7.190;2022-09-09T12:47:22;6.90;;;1.03;;
27145;SDS011;17980;51.744;7.190;2022-09-09T12:49:54;6.90;;;1.00;;
27145;SDS011;17980;51.744;7.190;2022-09-09T12:52:24;3.70;;;0.77;;
27145;SDS011;17980;51.744;7.190;2022-09-09T12:54:55;10.33;;;0.90;;
27145;SDS011;17980;51.744;7.190;2022-09-09T12:57:24;4.47;;;0.80;;
27145;SDS011;17980;51.744;7.190;2022-09-09T13:00:03;3.50;;;0.70;;
27145;SDS011;17980;51.744;7.190;2022-09-09T13:02:31;3.10;;;0.90;;
27145;SDS011;17980;51.744;7.190;2022-09-09T13:05:06;4.50;;;1.13;;
27145;SDS011;17980;51.744;7.190;2022-09-09T13:07:39;3.40;;;0.80;;
27145;SDS011;17980;51.744;7.190;2022-09-09T13:10:09;2.63;;;0.63;;
27145;SDS011;17980;51.744;7.190;2022-09-09T13:12:38;2.97;;;0.70;;
27145;SDS011;17980;51.744;7.190;2022-09-09T13:15:10;3.17;;;0.70;;
27145;SDS011;17980;51.744;7.190;2022-09-09T13:17:48;2.87;;;0.80;;
27145;SDS011;17980;51.744;7.190;2022-09-09T13:20:17;2.73;;;0.63;;
27145;SDS011;17980;51.744;7.190;2022-09-09T13:22:47;4.77;;;0.80;;
27145;SDS011;17980;51.744;7.190;2022-09-09T13:25:20;3.00;;;0.63;;
27145;SDS011;17980;51.744;7.190;2022-09-09T13:27:55;2.60;;;0.80;;
27145;SDS011;17980;51.744;7.190;2022-09-09T13:30:25;2.43;;;0.60;;
27145;SDS011;17980;51.744;7.190;2022-09-09T13:33:02;2.53;;;0.60;;
27145;SDS011;17980;51.744;7.190;2022-09-09T13:35:31;4.77;;;1.27;;
27145;SDS011;17980;51.744;7.190;2022-09-09T13:38:08;3.03;;;0.70;;
27145;SDS011;17980;51.744;7.190;2022-09-09T13:40:37;1.80;;;0.80;;
27145;SDS011;17980;51.744;7.190;2022-09-09T13:43:04;1.70;;;0.97;;
27145;SDS011;17980;51.744;7.190;2022-09-09T13:45:35;2.77;;;0.57;;
27145;SDS011;17980;51.744;7.190;2022-09-09T13:48:09;2.67;;;0.80;;
27145;SDS011;17980;51.744;7.190;2022-09-09T13:50:36;3.00;;;0.70;;
27145;SDS011;17980;51.744;7.190;2022-09-09T13:53:03;3.33;;;0.63;;
27145;SDS011;17980;51.744;7.190;2022-09-09T13:55:31;2.23;;;0.50;;
27145;SDS011;17980;51.744;7.190;2022-09-09T13:58:15;3.37;;;0.60;;
27145;SDS011;17980;51.744;7.190;2022-09-09T14:00:44;1.00;;;0.40;;
27145;SDS011;17980;51.744;7.190;2022-09-09T14:03:12;2.43;;;0.63;;
27145;SDS011;17980;51.744;7.190;2022-09-09T14:05:39;3.80;;;0.90;;
27145;SDS011;17980;51.744;7.190;2022-09-09T14:08:07;3.43;;;0.57;;
27145;SDS011;17980;51.744;7.190;2022-09-09T14:10:46;0.83;;;0.30;;
27145;SDS011;17980;51.744;7.190;2022-09-09T14:13:13;0.93;;;0.30;;
27145;SDS011;17980;51.744;7.190;2022-09-09T14:15:41;1.83;;;0.30;;
27145;SDS011;17980;51.744;7.190;2022-09-09T14:18:09;4.83;;;0.60;;
27145;SDS011;17980;51.744;7.190;2022-09-09T14:20:39;2.17;;;0.40;;
27145;SDS011;17980;51.744;7.190;2022-09-09T14:23:07;1.70;;;0.43;;
27145;SDS011;17980;51.744;7.190;2022-09-09T14:25:39;1.67;;;0.40;;
27145;SDS011;17980;51.744;7.190;2022-09-09T14:28:08;0.70;;;0.30;;
27145;SDS011;17980;51.744;7.190;2022-09-09T14:30:40;1.17;;;0.40;;
27145;SDS011;17980;51.744;7.190;2022-09-09T14:33:18;4.70;;;0.40;;
27145;SDS011;17980;51.744;7.190;2022-09-09T14:35:45;0.57;;;0.40;;
27145;SDS011;17980;51.744;7.190;2022-09-09T14:38:16;0.73;;;0.40;;
27145;SDS011;17980;51.744;7.190;2022-09-09T14:40:44;1.77;;;0.40;;
27145;SDS011;17980;51.744;7.190;2022-09-09T14:43:12;2.07;;;0.50;;
27145;SDS011;17980;51.744;7.190;2022-09-09T14:45:40;2.53;;;0.60;;
27145;SDS011;17980;51.744;7.190;2022-09-09T14:48:09;1.87;;;0.47;;
27145;SDS011;17980;51.744;7.190;2022-09-09T14:50:36;1.17;;;0.50;;
27145;SDS011;17980;51.744;7.190;2022-09-09T14:53:05;1.27;;;0.50;;
27145;SDS011;17980;51.744;7.190;2022-09-09T14:55:33;3.37;;;0.70;;
27145;SDS011;17980;51.744;7.190;2022-09-09T14:58:00;1.53;;;0.57;;
27145;SDS011;17980;51.744;7.190;2022-09-09T15:00:27;1.70;;;0.60;;
27145;SDS011;17980;51.744;7.190;2022-09-09T15:02:55;2.37;;;0.60;;
27145;SDS011;17980;51.744;7.190;2022-09-09T15:05:22;3.47;;;0.60;;
27145;SDS011;17980;51.744;7.190;2022-09-09T15:07:59;2.40;;;0.70;;
27145;SDS011;17980;51.744;7.190;2022-09-09T15:10:27;3.70;;;0.77;;
27145;SDS011;17980;51.744;7.190;2022-09-09T15:12:55;1.47;;;0.50;;
27145;SDS011;17980;51.744;7.190;2022-09-09T15:15:23;3.07;;;0.60;;
27145;SDS011;17980;51.744;7.190;2022-09-09T15:17:50;3.23;;;0.63;;
27145;SDS011;17980;51.744;7.190;2022-09-09T15:20:17;2.60;;;0.70;;
27145;SDS011;17980;51.744;7.190;2022-09-09T15:22:45;2.37;;;0.83;;
27145;SDS011;17980;51.744;7.190;2022-09-09T15:25:21;2.53;;;0.83;;
27145;SDS011;17980;51.744;7.190;2022-09-09T15:27:49;6.37;;;0.97;;